Kolyvan, Russia
Current Conditions -  °F | °C
As of 3:00 AM on Tuesday 27 Jan 2015 (Local Time) from UNNT Reporting Station
Overcast Overcast  
Wind Chill: -39°   Ceiling: 5000
Heat Index: -17°   Visibility: 6mi
Dew Point: -22°   Wind: 13mph
Humidity: 76%   Direction: 190°S
Pressure: 30.71"   Gusts: NA
Location:  55.31°N, 82.74°E
Report Text: UNNT 262000Z 19006MPS 9000 BKN050 OVC083 M27/M30 Q1040 2581016016810160 NOSIG RMK QFE770/1026
Loading
Personal Weather Stations






























Interactive Weather Map New forecast layout! Learn more

10-Day Weather Forecast

Advertisements
Track Severe Weather on mobile